CYRV

Revelstoke Airport

Revelstoke, British Columbia, Canada
METAR CYRV 170008Z AUTO 10002KT 9SM FEW014 BKN023 OVC075 M00/M01 A3018 RMK SLP244
Observed Flight Rules
Dec-17 @ 00:08 UTC (12 minutes ago) Marginal Visual Flight Rules
Wind Visibility Clouds
100° at 2 knots 9 miles
  • Few at 1,400' AGL
  • Broken at 2,300' AGL
  • Overcast at 7,500' AGL
Temperatures Readings
Current 0°C / 32°F
Dewpoint -1°C / 30°F
Humidity 93%
Altimeter 30.18" Hg
Pressure 1024.4 hPa
Elevation 443
METAR CYRV 170008Z AUTO 10002KT 9SM FEW014 BKN023 OVC075 M00/M01 A3018 RMK SLP244
Observed Flight Rules
Dec-17 @ 00:08 UTC
(12 minutes ago)
MVFR
Wind Visibility
100° at 2 knots 9 miles
Clouds
  • Few at 1,400' AGL
  • Broken at 2,300' AGL
  • Overcast at 7,500' AGL
Temperature Dewpoint
0°C / 32°F -1°C / 30°F
Humidity Altimeter Pressure
93% 30.18" Hg 1024.4 hPa